createdAt,value
2022-08-12T00:02:02.906Z,22.27
2022-08-12T00:04:49.933Z,22.31
2022-08-12T00:07:36.216Z,22.30
2022-08-12T00:10:22.172Z,22.30
2022-08-12T00:13:07.520Z,22.36
2022-08-12T00:15:54.487Z,22.41
2022-08-12T00:18:40.002Z,22.44
2022-08-12T00:21:25.390Z,22.44
2022-08-12T00:24:12.871Z,22.41
2022-08-12T00:27:00.248Z,22.38
2022-08-12T00:29:48.147Z,22.35
2022-08-12T00:32:35.956Z,22.34
2022-08-12T00:35:27.401Z,22.31
2022-08-12T00:38:22.848Z,22.27
2022-08-12T00:41:08.356Z,22.20
2022-08-12T00:43:36.258Z,22.13
2022-08-12T00:46:22.463Z,22.11
2022-08-12T00:48:50.411Z,22.04
2022-08-12T00:51:17.324Z,21.98
2022-08-12T00:53:44.139Z,21.91
2022-08-12T00:56:10.950Z,21.86
2022-08-12T00:58:45.962Z,21.84
2022-08-12T01:01:16.561Z,21.80
2022-08-12T01:04:07.255Z,21.72
2022-08-12T01:06:53.787Z,21.69
2022-08-12T01:09:41.225Z,21.65
2022-08-12T01:12:11.743Z,21.61
2022-08-12T01:14:40.874Z,21.60
2022-08-12T01:17:08.079Z,21.55
2022-08-12T01:19:34.719Z,21.53
2022-08-12T01:22:23.528Z,21.49
2022-08-12T01:25:18.557Z,21.42
2022-08-12T01:27:46.786Z,21.39
2022-08-12T01:30:14.447Z,21.37
2022-08-12T01:32:42.149Z,21.33
2022-08-12T01:35:14.747Z,21.26
2022-08-12T01:38:01.116Z,21.24
2022-08-12T01:40:36.098Z,21.20
2022-08-12T01:43:10.454Z,21.19
2022-08-12T01:45:46.340Z,21.18
2022-08-12T01:48:29.647Z,21.12
2022-08-12T01:52:21.312Z,21.05
2022-08-12T01:54:22.747Z,21.01
2022-08-12T01:57:11.070Z,20.96
2022-08-12T01:59:59.259Z,20.94
2022-08-12T02:02:35.056Z,20.93
2022-08-12T02:05:30.562Z,20.92
2022-08-12T02:08:27.728Z,20.90
2022-08-12T02:11:22.703Z,20.89
2022-08-12T02:14:01.178Z,20.85
2022-08-12T02:16:36.400Z,20.74
2022-08-12T02:19:28.579Z,20.70
2022-08-12T02:22:00.297Z,20.63
2022-08-12T02:24:32.237Z,20.66
2022-08-12T02:27:00.595Z,20.67
2022-08-12T02:29:27.999Z,20.69
2022-08-12T02:31:55.298Z,20.68
2022-08-12T02:34:23.086Z,20.71
2022-08-12T02:36:54.589Z,20.79
2022-08-12T02:39:25.283Z,20.80
2022-08-12T02:41:54.311Z,20.82
2022-08-12T02:44:23.631Z,20.81
2022-08-12T02:46:55.110Z,20.79
2022-08-12T02:49:44.561Z,20.77
2022-08-12T02:52:14.464Z,20.78
2022-08-12T02:54:45.746Z,20.76
2022-08-12T02:57:14.124Z,20.73
2022-08-12T02:59:41.831Z,20.72
2022-08-12T03:02:13.114Z,20.68
2022-08-12T03:04:56.695Z,20.67
2022-08-12T03:07:55.804Z,20.68
2022-08-12T03:10:23.955Z,20.70
2022-08-12T03:13:07.471Z,20.69
2022-08-12T03:15:35.904Z,20.68
2022-08-12T03:18:24.542Z,20.70
2022-08-12T03:20:53.901Z,20.70
2022-08-12T03:23:29.815Z,20.72
2022-08-12T03:25:59.417Z,20.72
2022-08-12T03:28:44.756Z,20.73
2022-08-12T03:31:11.590Z,20.72
2022-08-12T03:33:40.740Z,20.71
2022-08-12T03:36:08.980Z,20.69
2022-08-12T03:38:40.473Z,20.66
2022-08-12T03:41:40.695Z,20.56
2022-08-12T03:44:56.444Z,20.51
2022-08-12T03:47:49.866Z,20.51
2022-08-12T03:50:36.786Z,20.49
2022-08-12T03:53:24.586Z,20.45
2022-08-12T03:56:10.684Z,20.44
2022-08-12T03:58:56.959Z,20.42
2022-08-12T04:01:26.241Z,20.41
2022-08-12T04:03:53.690Z,20.42
2022-08-12T04:06:35.048Z,20.40
2022-08-12T04:09:14.631Z,20.38
2022-08-12T04:12:01.260Z,20.35
2022-08-12T04:14:28.034Z,20.33
2022-08-12T04:16:57.088Z,20.30
2022-08-12T04:19:25.199Z,20.31
2022-08-12T04:22:02.098Z,20.30
2022-08-12T04:24:36.752Z,20.30
2022-08-12T04:27:11.022Z,20.30
2022-08-12T04:30:29.477Z,20.30
2022-08-12T04:32:27.509Z,20.28
2022-08-12T04:34:55.270Z,20.26
2022-08-12T04:37:23.258Z,20.25
2022-08-12T04:39:50.519Z,20.25
2022-08-12T04:42:17.149Z,20.25
2022-08-12T04:44:44.444Z,20.26
2022-08-12T04:47:12.835Z,20.26
2022-08-12T04:49:40.812Z,20.29
2022-08-12T04:52:07.506Z,20.32
2022-08-12T04:54:34.450Z,20.40
2022-08-12T04:57:04.139Z,20.60
2022-08-12T04:59:46.978Z,21.12
2022-08-12T05:02:20.379Z,21.58
2022-08-12T05:04:51.285Z,21.92
2022-08-12T05:07:17.947Z,22.29
2022-08-12T05:10:02.013Z,22.57
2022-08-12T05:12:37.301Z,22.79
2022-08-12T05:15:18.926Z,23.01
2022-08-12T05:17:53.235Z,23.16
2022-08-12T05:20:20.693Z,23.28
2022-08-12T05:22:47.274Z,23.39
2022-08-12T05:25:18.415Z,23.47
2022-08-12T05:27:57.996Z,23.54
2022-08-12T05:30:27.073Z,23.61
2022-08-12T05:32:55.731Z,23.69
2022-08-12T05:35:27.059Z,23.76
2022-08-12T05:38:11.999Z,23.88
2022-08-12T05:40:38.644Z,23.98
2022-08-12T05:43:06.548Z,24.07
2022-08-12T05:45:33.254Z,24.16
2022-08-12T05:48:00.068Z,24.24
2022-08-12T05:50:26.686Z,24.33
2022-08-12T05:52:53.938Z,24.41
2022-08-12T05:55:20.916Z,24.52
2022-08-12T05:57:55.757Z,24.58
2022-08-12T06:00:26.203Z,24.63
2022-08-12T06:03:01.291Z,24.61
2022-08-12T06:05:30.276Z,24.66
2022-08-12T06:08:01.657Z,24.76
2022-08-12T06:10:32.545Z,24.80
2022-08-12T06:13:06.860Z,24.83
2022-08-12T06:15:38.086Z,24.90
2022-08-12T06:18:13.954Z,24.97
2022-08-12T06:20:43.632Z,24.97
2022-08-12T06:23:11.881Z,25.04
2022-08-12T06:25:38.981Z,25.12
2022-08-12T06:28:15.594Z,25.21
2022-08-12T06:30:42.396Z,25.19
2022-08-12T06:33:22.435Z,25.09
2022-08-12T06:35:51.841Z,25.17
2022-08-12T06:38:25.210Z,25.16
2022-08-12T06:41:18.528Z,25.21
2022-08-12T06:44:05.696Z,25.35
2022-08-12T06:46:33.480Z,25.49
2022-08-12T06:49:00.133Z,25.40
2022-08-12T06:51:29.624Z,25.18
2022-08-12T06:53:57.469Z,25.10
2022-08-12T06:56:34.999Z,25.08
2022-08-12T06:59:13.884Z,24.96
2022-08-12T07:01:40.850Z,25.02
2022-08-12T07:04:35.899Z,25.15
2022-08-12T07:07:05.567Z,25.29
2022-08-12T07:10:01.226Z,25.35
2022-08-12T07:12:20.019Z,25.31
2022-08-12T07:14:51.789Z,25.10
2022-08-12T07:17:18.429Z,24.96
2022-08-12T07:19:46.871Z,25.06
2022-08-12T07:22:16.165Z,25.22
2022-08-12T07:24:43.020Z,25.29
2022-08-12T07:27:09.723Z,25.30
2022-08-12T07:29:57.994Z,25.38
2022-08-12T07:32:25.639Z,25.44
2022-08-12T07:34:56.417Z,25.40
2022-08-12T07:37:23.588Z,25.43
2022-08-12T07:39:59.502Z,25.45
2022-08-12T07:42:27.177Z,25.57
2022-08-12T07:44:53.927Z,25.68
2022-08-12T07:47:20.561Z,25.76
2022-08-12T07:50:04.775Z,25.81
2022-08-12T07:52:34.927Z,25.82
2022-08-12T07:55:02.135Z,25.89
2022-08-12T07:57:28.800Z,25.93
2022-08-12T07:59:55.870Z,25.95
2022-08-12T08:02:26.977Z,26.01
2022-08-12T08:04:56.953Z,26.13
2022-08-12T08:07:25.950Z,26.29
2022-08-12T08:09:58.428Z,26.35
2022-08-12T08:12:45.613Z,26.34
2022-08-12T08:15:12.447Z,26.36
2022-08-12T08:17:39.105Z,26.49
2022-08-12T08:20:08.719Z,26.58
2022-08-12T08:22:41.455Z,26.65
2022-08-12T08:25:34.618Z,26.72
2022-08-12T08:27:59.124Z,26.88
2022-08-12T08:30:26.736Z,27.05
2022-08-12T08:32:53.420Z,27.18
2022-08-12T08:35:22.485Z,27.25
2022-08-12T08:37:52.160Z,27.34
2022-08-12T08:40:38.116Z,27.39
2022-08-12T08:43:05.672Z,27.45
2022-08-12T08:45:32.235Z,27.48
2022-08-12T08:48:00.460Z,27.46
2022-08-12T08:50:27.522Z,27.48
2022-08-12T08:52:54.128Z,27.55
2022-08-12T08:55:27.401Z,27.70
2022-08-12T08:58:00.131Z,27.77
2022-08-12T09:00:27.030Z,27.90
2022-08-12T09:02:58.769Z,27.95
2022-08-12T09:05:27.281Z,28.04
2022-08-12T09:08:09.196Z,28.13
2022-08-12T09:10:45.273Z,28.32
2022-08-12T09:13:29.317Z,28.37
2022-08-12T09:16:20.322Z,28.48
2022-08-12T09:18:48.366Z,28.61
2022-08-12T09:21:19.399Z,28.71
2022-08-12T09:26:45.919Z,29.08
2022-08-12T09:29:15.384Z,29.32
2022-08-12T09:32:07.060Z,29.45
2022-08-12T09:34:33.840Z,29.56
2022-08-12T09:37:19.504Z,29.63
2022-08-12T09:40:03.556Z,29.63
2022-08-12T09:46:11.036Z,29.68
2022-08-12T09:48:34.856Z,29.88
2022-08-12T09:51:04.556Z,30.04
2022-08-12T09:53:38.372Z,30.11
2022-08-12T09:56:59.110Z,30.11
2022-08-12T09:58:58.613Z,30.15
2022-08-12T10:01:34.700Z,30.23
2022-08-12T10:04:05.736Z,30.29
2022-08-12T10:06:36.678Z,30.37
2022-08-12T10:09:15.326Z,30.38
2022-08-12T10:12:12.179Z,30.49
2022-08-12T10:14:50.300Z,30.55
2022-08-12T10:17:23.028Z,30.63
2022-08-12T10:19:52.576Z,30.63
2022-08-12T10:22:36.751Z,30.64
2022-08-12T10:26:35.086Z,30.67
2022-08-12T10:28:31.531Z,30.74
2022-08-12T10:30:59.160Z,30.83
2022-08-12T10:33:31.055Z,30.97
2022-08-12T10:35:59.823Z,31.11
2022-08-12T10:38:38.738Z,31.09
2022-08-12T10:41:58.029Z,31.11
2022-08-12T10:44:17.345Z,31.05
2022-08-12T10:46:49.378Z,31.12
2022-08-12T10:50:03.519Z,31.11
2022-08-12T10:52:34.335Z,31.19
2022-08-12T10:54:55.952Z,31.34
2022-08-12T10:58:15.041Z,31.32
2022-08-12T11:00:34.780Z,31.34
2022-08-12T11:04:34.281Z,31.33
2022-08-12T11:07:07.640Z,31.40
2022-08-12T11:08:42.327Z,31.49
2022-08-12T11:11:13.518Z,31.56
2022-08-12T11:13:46.712Z,31.60
2022-08-12T11:16:21.850Z,31.67
2022-08-12T11:18:55.437Z,31.74
2022-08-12T11:21:47.330Z,31.88
2022-08-12T11:24:30.190Z,31.93
2022-08-12T11:26:58.576Z,31.90
2022-08-12T11:29:27.767Z,32.07
2022-08-12T11:32:14.291Z,32.14
2022-08-12T11:34:52.842Z,32.12
2022-08-12T11:37:25.901Z,32.08
2022-08-12T11:42:35.679Z,32.33
2022-08-12T11:45:03.813Z,32.44
2022-08-12T11:47:31.807Z,32.53
2022-08-12T11:49:58.400Z,32.50
2022-08-12T11:52:55.290Z,32.57
2022-08-12T11:55:14.921Z,32.71
2022-08-12T11:58:14.307Z,32.86
2022-08-12T12:03:26.391Z,32.83
2022-08-12T12:06:15.436Z,32.87
2022-08-12T12:08:50.580Z,32.86
2022-08-12T12:11:19.786Z,32.91
2022-08-12T12:14:07.577Z,32.92
2022-08-12T12:16:38.269Z,33.00
2022-08-12T12:19:07.062Z,33.09
2022-08-12T12:21:48.585Z,33.08
2022-08-12T12:24:21.166Z,33.08
2022-08-12T12:27:00.545Z,33.02
2022-08-12T12:30:18.915Z,33.02
2022-08-12T12:32:16.348Z,33.13
2022-08-12T12:35:14.333Z,33.23
2022-08-12T12:38:03.843Z,33.32
2022-08-12T12:40:16.487Z,33.41
2022-08-12T12:42:55.240Z,33.38
2022-08-12T12:45:26.218Z,33.46
2022-08-12T12:47:58.989Z,33.59
2022-08-12T12:50:35.165Z,33.52
2022-08-12T12:53:03.892Z,33.54
2022-08-12T12:55:35.836Z,33.55
2022-08-12T12:58:04.894Z,33.51
2022-08-12T13:00:32.856Z,33.53
2022-08-12T13:03:00.200Z,33.43
2022-08-12T13:05:29.664Z,33.46
2022-08-12T13:08:38.307Z,33.40
2022-08-12T13:11:06.482Z,33.35
2022-08-12T13:14:09.204Z,33.25
2022-08-12T13:16:23.495Z,33.24
2022-08-12T13:18:52.783Z,33.27
2022-08-12T13:21:32.735Z,33.28
2022-08-12T13:24:09.637Z,33.41
2022-08-12T13:26:37.913Z,33.53
2022-08-12T13:29:04.605Z,33.68
2022-08-12T13:31:31.602Z,33.63
2022-08-12T13:34:34.259Z,33.61
2022-08-12T13:36:50.966Z,33.80
2022-08-12T13:39:21.357Z,33.92
2022-08-12T13:41:49.592Z,34.11
2022-08-12T13:44:16.540Z,34.33
2022-08-12T13:46:43.537Z,34.50
2022-08-12T13:49:55.186Z,34.60
2022-08-12T13:52:11.434Z,34.63
2022-08-12T13:54:37.980Z,34.80
2022-08-12T13:57:04.579Z,35.02
2022-08-12T13:59:48.120Z,35.15
2022-08-12T14:02:15.892Z,35.28
2022-08-12T14:04:45.505Z,35.68
2022-08-12T14:07:23.496Z,35.82
2022-08-12T14:10:11.748Z,35.87
2022-08-12T14:12:40.783Z,36.20
2022-08-12T14:15:21.511Z,36.86
2022-08-12T14:18:21.461Z,37.46
2022-08-12T14:20:50.294Z,37.95
2022-08-12T14:24:05.624Z,38.03
2022-08-12T14:26:12.106Z,38.11
2022-08-12T14:28:45.252Z,38.25
2022-08-12T14:31:31.802Z,38.54
2022-08-12T14:33:59.398Z,38.89
2022-08-12T14:36:26.801Z,39.25
2022-08-12T14:38:55.088Z,39.73
2022-08-12T14:41:37.128Z,40.12
2022-08-12T14:44:58.878Z,40.39
2022-08-12T14:46:59.221Z,40.60
2022-08-12T14:50:41.537Z,40.51
2022-08-12T14:53:03.385Z,40.33
2022-08-12T14:57:57.992Z,40.62
2022-08-12T15:00:52.568Z,40.75
2022-08-12T15:03:52.274Z,40.55
2022-08-12T15:06:43.780Z,40.53
2022-08-12T15:09:09.151Z,40.80
2022-08-12T15:11:55.725Z,40.75
2022-08-12T15:14:27.667Z,40.61
2022-08-12T15:16:57.317Z,40.73
2022-08-12T15:20:27.912Z,40.72
2022-08-12T15:22:36.935Z,41.17
2022-08-12T15:25:07.586Z,41.53
2022-08-12T15:28:04.156Z,41.60
2022-08-12T15:30:31.266Z,41.51
2022-08-12T15:32:58.963Z,41.69
2022-08-12T15:35:31.415Z,41.73
2022-08-12T15:38:19.705Z,41.84
2022-08-12T15:40:49.531Z,41.78
2022-08-12T15:43:35.286Z,41.53
2022-08-12T15:46:06.335Z,41.64
2022-08-12T15:48:33.135Z,41.71
2022-08-12T15:51:02.985Z,41.69
2022-08-12T15:53:53.451Z,41.56
2022-08-12T15:56:29.592Z,41.06
2022-08-12T15:59:00.197Z,40.86
2022-08-12T16:01:35.074Z,40.86
2022-08-12T16:04:02.664Z,40.86
2022-08-12T16:07:00.756Z,41.08
2022-08-12T16:09:21.600Z,41.05
2022-08-12T16:11:59.218Z,40.98
2022-08-12T16:14:28.287Z,40.84
2022-08-12T16:16:55.544Z,40.64
2022-08-12T16:20:03.122Z,40.62
2022-08-12T16:22:11.317Z,40.26
2022-08-12T16:24:43.563Z,40.18
2022-08-12T16:27:10.961Z,40.33
2022-08-12T16:29:53.183Z,40.63
2022-08-12T16:32:23.898Z,40.94
2022-08-12T16:34:55.752Z,41.20
2022-08-12T16:38:05.036Z,40.83
2022-08-12T16:40:10.968Z,40.59
2022-08-12T16:42:42.251Z,40.32
2022-08-12T16:45:23.096Z,40.39
2022-08-12T16:48:00.723Z,40.29
2022-08-12T16:50:31.270Z,39.99
2022-08-12T16:52:59.763Z,39.64
2022-08-12T16:55:41.918Z,39.51
2022-08-12T16:58:18.459Z,39.09
2022-08-12T17:00:55.357Z,38.98
2022-08-12T17:03:29.191Z,38.81
2022-08-12T17:05:57.263Z,38.29
2022-08-12T17:08:29.170Z,37.66
2022-08-12T17:10:56.336Z,36.98
2022-08-12T17:13:26.169Z,36.26
2022-08-12T17:16:05.642Z,35.51
2022-08-12T17:18:43.373Z,34.76
2022-08-12T17:21:19.711Z,34.16
2022-08-12T17:23:52.986Z,33.68
2022-08-12T17:26:24.745Z,33.22
2022-08-12T17:28:56.703Z,32.89
2022-08-12T17:32:00.331Z,32.65
2022-08-12T17:34:30.233Z,32.44
2022-08-12T17:37:04.863Z,32.26
2022-08-12T17:40:11.984Z,32.16
2022-08-12T17:42:34.424Z,32.00
2022-08-12T17:45:01.814Z,31.83
2022-08-12T17:47:43.857Z,31.73
2022-08-12T17:50:12.918Z,31.65
2022-08-12T17:52:40.304Z,31.54
2022-08-12T17:55:22.902Z,31.45
2022-08-12T17:57:57.242Z,31.31
2022-08-12T18:00:28.425Z,31.19
2022-08-12T18:02:59.806Z,31.15
2022-08-12T18:05:29.493Z,31.10
2022-08-12T18:08:15.970Z,31.03
2022-08-12T18:11:11.640Z,30.92
2022-08-12T18:13:42.561Z,30.81
2022-08-12T18:16:13.236Z,30.75
2022-08-12T18:18:41.867Z,30.68
2022-08-12T18:21:08.696Z,30.60
2022-08-12T18:23:50.553Z,30.54
2022-08-12T18:26:23.435Z,30.42
2022-08-12T18:28:54.681Z,30.34
2022-08-12T18:31:44.630Z,30.26
2022-08-12T18:34:18.471Z,30.16
2022-08-12T18:36:50.130Z,30.09
2022-08-12T18:39:19.680Z,30.01
2022-08-12T18:41:47.283Z,29.93
2022-08-12T18:44:14.088Z,29.84
2022-08-12T18:46:47.238Z,29.73
2022-08-12T18:49:25.077Z,29.63
2022-08-12T18:52:02.235Z,29.56
2022-08-12T18:54:36.056Z,29.46
2022-08-12T18:57:16.701Z,29.38
2022-08-12T19:00:00.868Z,29.26
2022-08-12T19:02:32.049Z,29.18
2022-08-12T19:04:59.099Z,29.08
2022-08-12T19:07:29.748Z,29.02
2022-08-12T19:10:13.908Z,28.92
2022-08-12T19:12:59.357Z,28.84
2022-08-12T19:15:27.273Z,28.73
2022-08-12T19:18:02.729Z,28.64
2022-08-12T19:20:30.630Z,28.54
2022-08-12T19:22:59.785Z,28.50
2022-08-12T19:26:01.710Z,28.43
2022-08-12T19:28:29.786Z,28.33
2022-08-12T19:31:56.832Z,28.24
2022-08-12T19:35:24.156Z,28.11
2022-08-12T19:37:38.600Z,27.98
2022-08-12T19:40:31.560Z,27.84
2022-08-12T19:43:02.357Z,27.74
2022-08-12T19:45:50.375Z,27.62
2022-08-12T19:48:20.427Z,27.52
2022-08-12T19:50:50.506Z,27.41
2022-08-12T19:53:22.777Z,27.31
2022-08-12T19:55:53.157Z,27.21
2022-08-12T19:58:21.525Z,27.11
2022-08-12T20:00:52.835Z,27.04
2022-08-12T20:03:39.831Z,26.92
2022-08-12T20:06:21.829Z,26.82
2022-08-12T20:08:56.582Z,26.70
2022-08-12T20:12:12.969Z,26.58
2022-08-12T20:14:19.197Z,26.48
2022-08-12T20:16:52.103Z,26.36
2022-08-12T20:19:21.344Z,26.22
2022-08-12T20:21:50.651Z,26.09
2022-08-12T20:24:19.392Z,25.95
2022-08-12T20:26:46.816Z,25.83
2022-08-12T20:29:15.084Z,25.75
2022-08-12T20:31:43.926Z,25.65
2022-08-12T20:34:12.330Z,25.60
2022-08-12T20:36:44.796Z,25.52
2022-08-12T20:39:34.340Z,25.47
2022-08-12T20:42:07.343Z,25.36
2022-08-12T20:44:40.417Z,25.29
2022-08-12T20:47:18.281Z,25.23
2022-08-12T20:49:54.860Z,25.16
2022-08-12T20:52:22.565Z,25.13
2022-08-12T20:54:51.923Z,25.11
2022-08-12T20:57:20.063Z,25.07
2022-08-12T20:59:49.553Z,25.02
2022-08-12T21:02:24.457Z,24.98
2022-08-12T21:05:16.603Z,24.90
2022-08-12T21:07:52.314Z,24.81
2022-08-12T21:10:21.028Z,24.74
2022-08-12T21:12:48.418Z,24.67
2022-08-12T21:15:30.314Z,24.60
2022-08-12T21:18:00.898Z,24.46
2022-08-12T21:20:37.853Z,24.42
2022-08-12T21:23:06.385Z,24.39
2022-08-12T21:25:35.979Z,24.33
2022-08-12T21:28:10.777Z,24.28
2022-08-12T21:31:10.836Z,24.22
2022-08-12T21:33:31.143Z,24.16
2022-08-12T21:35:59.114Z,24.09
2022-08-12T21:38:34.239Z,24.01
2022-08-12T21:41:06.839Z,23.96
2022-08-12T21:43:38.955Z,23.93
2022-08-12T21:46:14.997Z,23.88
2022-08-12T21:49:04.566Z,23.82
2022-08-12T21:51:35.371Z,23.77
2022-08-12T21:54:22.558Z,23.69
2022-08-12T21:56:53.607Z,23.66
2022-08-12T21:59:21.766Z,23.61
2022-08-12T22:01:49.786Z,23.57
2022-08-12T22:04:36.313Z,23.55
2022-08-12T22:07:03.680Z,23.50
2022-08-12T22:09:43.060Z,23.43
2022-08-12T22:12:29.593Z,23.36
2022-08-12T22:14:56.517Z,23.31
2022-08-12T22:17:33.744Z,23.29
2022-08-12T22:20:21.899Z,23.22
2022-08-12T22:22:56.434Z,23.17
2022-08-12T22:25:27.882Z,23.10
2022-08-12T22:28:13.438Z,23.07
2022-08-12T22:30:59.326Z,23.01
2022-08-12T22:33:25.936Z,22.95
2022-08-12T22:35:59.427Z,22.92
2022-08-12T22:38:29.696Z,22.89
2022-08-12T22:41:01.742Z,22.86
2022-08-12T22:44:00.710Z,22.83
2022-08-12T22:46:52.488Z,22.80
2022-08-12T22:49:20.364Z,22.76
2022-08-12T22:52:00.295Z,22.74
2022-08-12T22:54:36.668Z,22.69
2022-08-12T22:57:12.087Z,22.66
2022-08-12T22:59:55.866Z,22.60
2022-08-12T23:02:30.706Z,22.53
2022-08-12T23:04:57.947Z,22.46
2022-08-12T23:07:24.713Z,22.43
2022-08-12T23:09:51.415Z,22.41
2022-08-12T23:12:46.591Z,22.41
2022-08-12T23:15:14.195Z,22.36
2022-08-12T23:17:41.793Z,22.32
2022-08-12T23:20:11.435Z,22.29
2022-08-12T23:22:38.668Z,22.26
2022-08-12T23:25:07.780Z,22.23
2022-08-12T23:28:04.367Z,22.20
2022-08-12T23:30:32.117Z,22.14
2022-08-12T23:33:20.093Z,22.10
2022-08-12T23:36:02.496Z,22.02
2022-08-12T23:38:32.470Z,21.96
2022-08-12T23:41:05.952Z,21.94
2022-08-12T23:43:39.162Z,21.93
2022-08-12T23:46:08.731Z,21.91
2022-08-12T23:48:35.763Z,21.90
2022-08-12T23:51:22.399Z,21.86
2022-08-12T23:54:04.113Z,21.79
2022-08-12T23:56:32.998Z,21.79
2022-08-12T23:59:05.616Z,21.75
